createdAt,value
2023-05-21T00:02:23.095Z,51.70
2023-05-21T00:04:49.668Z,51.70
2023-05-21T00:07:16.189Z,51.50
2023-05-21T00:09:42.731Z,51.60
2023-05-21T00:12:09.250Z,51.70
2023-05-21T00:14:35.802Z,51.70
2023-05-21T00:17:02.345Z,51.60
2023-05-21T00:19:28.956Z,51.70
2023-05-21T00:21:55.526Z,51.60
2023-05-21T00:24:24.893Z,51.70
2023-05-21T00:26:51.425Z,51.60
2023-05-21T00:29:17.962Z,51.60
2023-05-21T00:31:44.532Z,51.50
2023-05-21T00:34:11.131Z,51.60
2023-05-21T00:36:37.669Z,51.60
2023-05-21T00:39:04.176Z,51.60
2023-05-21T00:41:30.677Z,51.60
2023-05-21T00:43:57.266Z,51.60
2023-05-21T00:46:23.967Z,51.60
2023-05-21T00:48:54.910Z,51.60
2023-05-21T00:51:21.428Z,51.40
2023-05-21T00:53:47.944Z,51.60
2023-05-21T00:56:14.494Z,51.50
2023-05-21T00:58:41.024Z,51.50
2023-05-21T01:01:07.682Z,51.50
2023-05-21T01:03:34.302Z,51.60
2023-05-21T01:06:00.879Z,51.50
2023-05-21T01:08:27.405Z,51.50
2023-05-21T01:10:54.932Z,51.50
2023-05-21T01:13:21.430Z,51.50
2023-05-21T01:15:47.982Z,51.50
2023-05-21T01:18:14.522Z,51.50
2023-05-21T01:20:41.100Z,51.50
2023-05-21T01:23:07.614Z,51.50
2023-05-21T01:25:34.349Z,51.50
2023-05-21T01:28:01.086Z,51.50
2023-05-21T01:30:27.607Z,51.50
2023-05-21T01:32:54.237Z,51.40
2023-05-21T01:35:20.830Z,51.60
2023-05-21T01:37:47.336Z,51.60
2023-05-21T01:40:13.879Z,51.60
2023-05-21T01:42:40.405Z,51.50
2023-05-21T01:45:06.960Z,51.60
2023-05-21T01:47:33.513Z,51.50
2023-05-21T01:50:00.041Z,51.60
2023-05-21T01:52:26.558Z,51.60
2023-05-21T01:54:53.092Z,51.60
2023-05-21T01:57:19.633Z,51.60
2023-05-21T01:59:46.170Z,51.60
2023-05-21T02:02:12.756Z,51.60
2023-05-21T02:04:39.324Z,51.50
2023-05-21T02:07:05.866Z,51.60
2023-05-21T02:09:36.996Z,51.60
2023-05-21T02:12:03.535Z,51.70
2023-05-21T02:14:30.080Z,51.60
2023-05-21T02:16:56.625Z,51.70
2023-05-21T02:19:23.192Z,51.50
2023-05-21T02:21:49.796Z,51.50
2023-05-21T02:24:16.311Z,51.60
2023-05-21T02:26:42.859Z,51.70
2023-05-21T02:29:09.402Z,51.60
2023-05-21T02:31:35.922Z,51.70
2023-05-21T02:34:02.453Z,51.60
2023-05-21T02:36:29.019Z,51.60
2023-05-21T02:38:55.538Z,51.60
2023-05-21T02:41:22.050Z,51.60
2023-05-21T02:43:48.570Z,51.70
2023-05-21T02:46:15.182Z,51.60
2023-05-21T02:48:41.787Z,51.50
2023-05-21T02:51:08.323Z,51.60
2023-05-21T02:53:34.830Z,51.70
2023-05-21T02:56:01.392Z,51.60
2023-05-21T02:58:27.899Z,51.60
2023-05-21T03:00:54.475Z,51.70
2023-05-21T03:03:21.149Z,51.70
2023-05-21T03:05:47.741Z,51.50
2023-05-21T03:08:14.254Z,51.70
2023-05-21T03:10:40.756Z,51.60
2023-05-21T03:13:09.711Z,51.60
2023-05-21T03:15:36.753Z,51.70
2023-05-21T03:18:03.533Z,51.70
2023-05-21T03:20:31.039Z,51.70
2023-05-21T03:22:57.572Z,51.60
2023-05-21T03:25:24.081Z,51.70
2023-05-21T03:27:50.679Z,51.60
2023-05-21T03:30:17.209Z,51.80
2023-05-21T03:32:43.828Z,51.60
2023-05-21T03:35:10.402Z,51.70
2023-05-21T03:37:36.953Z,51.70
2023-05-21T03:40:03.479Z,51.70
2023-05-21T03:42:30.185Z,51.60
2023-05-21T03:44:56.685Z,51.70
2023-05-21T03:47:23.253Z,51.60
2023-05-21T03:49:49.817Z,51.60
2023-05-21T03:52:16.318Z,51.80
2023-05-21T03:54:42.827Z,51.70
2023-05-21T03:57:09.389Z,51.80
2023-05-21T03:59:35.931Z,51.70
2023-05-21T04:02:02.472Z,51.70
2023-05-21T04:04:29.019Z,51.70
2023-05-21T04:06:55.546Z,51.60
2023-05-21T04:09:22.057Z,51.70
2023-05-21T04:11:48.584Z,51.70
2023-05-21T04:14:15.107Z,51.70
2023-05-21T04:16:41.626Z,51.80
2023-05-21T04:19:08.205Z,51.70
2023-05-21T04:21:34.778Z,51.70
2023-05-21T04:24:01.332Z,51.70
2023-05-21T04:26:31.162Z,51.80
2023-05-21T04:28:57.706Z,51.80
2023-05-21T04:31:24.220Z,51.70
2023-05-21T04:33:50.759Z,51.70
2023-05-21T04:36:17.326Z,51.80
2023-05-21T04:38:43.928Z,51.70
2023-05-21T04:41:10.435Z,51.80
2023-05-21T04:43:36.965Z,51.70
2023-05-21T04:46:03.487Z,51.70
2023-05-21T04:48:30.020Z,51.80
2023-05-21T04:50:56.537Z,51.80
2023-05-21T04:53:23.068Z,51.80
2023-05-21T04:55:49.584Z,51.80
2023-05-21T04:58:16.104Z,51.80
2023-05-21T05:00:42.669Z,51.90
2023-05-21T05:03:09.281Z,51.70
2023-05-21T05:05:36.029Z,51.80
2023-05-21T05:08:02.844Z,51.70
2023-05-21T05:10:29.374Z,51.70
2023-05-21T05:12:55.910Z,51.80
2023-05-21T05:15:22.456Z,51.90
2023-05-21T05:17:49.012Z,51.80
2023-05-21T05:20:15.544Z,51.70
2023-05-21T05:22:42.079Z,51.80
2023-05-21T05:25:08.631Z,51.80
2023-05-21T05:27:36.974Z,51.80
2023-05-21T05:30:04.874Z,51.80
2023-05-21T05:32:31.448Z,51.90
2023-05-21T05:35:02.421Z,51.90
2023-05-21T05:37:29.214Z,52.00
2023-05-21T05:39:55.734Z,52.00
2023-05-21T05:42:22.241Z,51.80
2023-05-21T05:44:48.739Z,51.90
2023-05-21T05:47:15.250Z,51.90
2023-05-21T05:49:41.787Z,51.90
2023-05-21T05:52:08.313Z,51.90
2023-05-21T05:54:34.854Z,51.80
2023-05-21T05:57:01.377Z,52.00
2023-05-21T05:59:27.917Z,51.90
2023-05-21T06:01:54.441Z,51.90
2023-05-21T06:04:20.968Z,51.90
2023-05-21T06:06:47.480Z,51.90
2023-05-21T06:09:14.010Z,51.90
2023-05-21T06:11:40.532Z,51.90
2023-05-21T06:14:07.076Z,52.10
2023-05-21T06:16:33.724Z,52.00
2023-05-21T06:19:00.524Z,51.90
2023-05-21T06:21:27.113Z,51.90
2023-05-21T06:23:53.642Z,51.90
2023-05-21T06:26:20.177Z,51.90
2023-05-21T06:28:46.720Z,51.90
2023-05-21T06:31:13.264Z,52.00
2023-05-21T06:33:39.853Z,52.00
2023-05-21T06:36:06.428Z,52.00
2023-05-21T06:38:32.949Z,52.10
2023-05-21T06:40:59.489Z,52.10
2023-05-21T06:43:26.012Z,52.10
2023-05-21T06:45:52.575Z,52.20
2023-05-21T06:48:19.089Z,52.20
2023-05-21T06:50:45.600Z,52.30
2023-05-21T06:53:12.187Z,52.10
2023-05-21T06:55:38.871Z,52.20
2023-05-21T06:58:05.524Z,52.20
2023-05-21T07:00:32.052Z,52.20
2023-05-21T07:02:58.649Z,52.20
2023-05-21T07:05:25.210Z,52.20
2023-05-21T07:07:51.736Z,52.10
2023-05-21T07:10:18.292Z,52.10
2023-05-21T07:12:44.814Z,52.20
2023-05-21T07:15:11.354Z,52.10
2023-05-21T07:17:37.928Z,52.10
2023-05-21T07:20:04.471Z,52.30
2023-05-21T07:22:31.017Z,52.40
2023-05-21T07:25:01.254Z,52.30
2023-05-21T07:27:27.789Z,52.30
2023-05-21T07:29:54.314Z,52.20
2023-05-21T07:32:20.858Z,52.20
2023-05-21T07:34:49.213Z,52.30
2023-05-21T07:37:15.759Z,52.40
2023-05-21T07:39:42.275Z,52.40
2023-05-21T07:42:08.807Z,52.30
2023-05-21T07:44:35.347Z,52.40
2023-05-21T07:47:01.860Z,52.40
2023-05-21T07:49:28.377Z,52.20
2023-05-21T07:51:54.900Z,52.30
2023-05-21T07:54:21.411Z,52.40
2023-05-21T07:56:47.967Z,52.40
2023-05-21T07:59:14.537Z,52.30
2023-05-21T08:01:41.087Z,52.30
2023-05-21T08:04:07.822Z,52.40
2023-05-21T08:06:34.451Z,52.30
2023-05-21T08:09:00.965Z,52.40
2023-05-21T08:11:27.466Z,52.40
2023-05-21T08:13:53.977Z,52.40
2023-05-21T08:16:20.500Z,52.40
2023-05-21T08:18:47.164Z,52.50
2023-05-21T08:21:13.743Z,52.40
2023-05-21T08:23:40.303Z,52.40
2023-05-21T08:26:06.848Z,52.60
2023-05-21T08:28:33.407Z,52.40
2023-05-21T08:30:59.938Z,52.60
2023-05-21T08:33:26.474Z,52.60
2023-05-21T08:35:52.990Z,52.60
2023-05-21T08:38:19.544Z,52.50
2023-05-21T08:40:46.077Z,52.70
2023-05-21T08:43:12.617Z,52.70
2023-05-21T08:45:43.511Z,52.70
2023-05-21T08:48:10.094Z,52.70
2023-05-21T08:50:36.628Z,52.70
2023-05-21T08:53:07.557Z,52.70
2023-05-21T08:55:42.259Z,52.80
2023-05-21T08:58:08.777Z,52.70
2023-05-21T09:00:35.452Z,52.70
2023-05-21T09:03:07.550Z,52.60
2023-05-21T09:05:34.423Z,52.60
2023-05-21T09:08:01.342Z,52.70
2023-05-21T09:10:27.852Z,52.60
2023-05-21T09:12:54.402Z,52.70
2023-05-21T09:15:20.939Z,52.70
2023-05-21T09:17:47.528Z,52.70
2023-05-21T09:20:14.090Z,52.70
2023-05-21T09:22:43.358Z,52.90
2023-05-21T09:25:09.850Z,52.80
2023-05-21T09:27:36.376Z,52.70
2023-05-21T09:30:02.910Z,52.60
2023-05-21T09:32:29.447Z,52.80
2023-05-21T09:34:55.994Z,52.70
2023-05-21T09:39:52.961Z,52.60
2023-05-21T09:42:19.476Z,52.50
2023-05-21T09:44:46.014Z,52.60
2023-05-21T09:47:12.518Z,52.70
2023-05-21T09:49:39.018Z,52.70
2023-05-21T09:52:05.547Z,52.70
2023-05-21T09:54:32.075Z,52.90
2023-05-21T09:56:58.587Z,52.80
2023-05-21T09:59:25.137Z,52.80
2023-05-21T10:01:51.739Z,52.80
2023-05-21T10:04:18.410Z,52.90
2023-05-21T10:06:44.952Z,52.80
2023-05-21T10:09:11.511Z,52.90
2023-05-21T10:11:38.020Z,52.90
2023-05-21T10:14:04.553Z,52.90
2023-05-21T10:16:31.113Z,52.80
2023-05-21T10:18:57.711Z,52.80
2023-05-21T10:21:24.235Z,52.90
2023-05-21T10:23:50.779Z,52.80
2023-05-21T10:26:17.306Z,52.90
2023-05-21T10:28:43.810Z,52.90
2023-05-21T10:31:10.340Z,52.90
2023-05-21T10:33:36.904Z,52.90
2023-05-21T10:36:07.460Z,52.90
2023-05-21T10:38:33.984Z,53.00
2023-05-21T10:41:00.515Z,52.90
2023-05-21T10:43:27.047Z,52.90
2023-05-21T10:45:53.643Z,52.90
2023-05-21T10:48:20.331Z,52.80
2023-05-21T10:50:46.954Z,53.00
2023-05-21T10:53:13.496Z,52.80
2023-05-21T10:55:40.033Z,52.80
2023-05-21T10:58:06.550Z,52.90
2023-05-21T11:00:33.077Z,53.00
2023-05-21T11:02:59.751Z,53.10
2023-05-21T11:05:26.333Z,53.00
2023-05-21T11:07:52.869Z,53.10
2023-05-21T11:10:19.419Z,53.10
2023-05-21T11:12:45.938Z,53.00
2023-05-21T11:15:12.438Z,53.20
2023-05-21T11:17:39.005Z,53.30
2023-05-21T11:20:07.447Z,53.20
2023-05-21T11:22:33.977Z,53.20
2023-05-21T11:25:00.512Z,53.20
2023-05-21T11:27:27.035Z,53.20
2023-05-21T11:29:55.460Z,53.40
2023-05-21T11:32:21.977Z,53.20
2023-05-21T11:34:49.467Z,53.40
2023-05-21T11:37:15.994Z,53.40
2023-05-21T11:39:43.465Z,53.50
2023-05-21T11:42:09.988Z,53.60
2023-05-21T11:44:36.537Z,53.50
2023-05-21T11:47:03.116Z,53.60
2023-05-21T11:49:29.727Z,53.60
2023-05-21T11:51:56.288Z,53.70
2023-05-21T11:54:22.806Z,53.70
2023-05-21T11:56:49.339Z,53.80
2023-05-21T11:59:19.501Z,53.90
2023-05-21T12:01:46.069Z,53.90
2023-05-21T12:04:12.600Z,53.90
2023-05-21T12:06:43.482Z,54.00
2023-05-21T12:09:09.997Z,54.10
2023-05-21T12:11:36.521Z,54.00
2023-05-21T12:14:03.072Z,54.00
2023-05-21T12:16:29.704Z,54.10
2023-05-21T12:18:56.239Z,54.10
2023-05-21T12:21:22.795Z,54.10
2023-05-21T12:26:20.864Z,54.20
2023-05-21T12:28:47.373Z,54.40
2023-05-21T12:31:13.953Z,54.40
2023-05-21T12:33:40.518Z,54.40
2023-05-21T12:36:07.036Z,54.30
2023-05-21T12:38:37.742Z,54.40
2023-05-21T12:41:04.285Z,54.60
2023-05-21T12:43:30.806Z,54.40
2023-05-21T12:45:57.324Z,54.60
2023-05-21T12:48:23.854Z,54.50
2023-05-21T12:50:50.402Z,54.60
2023-05-21T12:53:16.968Z,54.70
2023-05-21T12:55:43.494Z,54.70
2023-05-21T12:58:09.998Z,54.60
2023-05-21T13:00:38.128Z,54.80
2023-05-21T13:03:05.028Z,54.70
2023-05-21T13:05:37.526Z,54.80
2023-05-21T13:08:04.097Z,54.90
2023-05-21T13:10:30.659Z,54.90
2023-05-21T13:12:57.410Z,55.00
2023-05-21T13:15:23.952Z,55.00
2023-05-21T13:17:51.485Z,55.20
2023-05-21T13:20:19.026Z,55.10
2023-05-21T13:22:45.559Z,55.20
2023-05-21T13:25:12.069Z,55.30
2023-05-21T13:27:38.615Z,55.30
2023-05-21T13:30:05.145Z,55.40
2023-05-21T13:32:31.781Z,55.60
2023-05-21T13:34:58.344Z,55.50
2023-05-21T13:37:24.903Z,55.60
2023-05-21T13:39:54.325Z,55.80
2023-05-21T13:42:20.873Z,55.80
2023-05-21T13:44:47.383Z,55.70
2023-05-21T13:47:13.927Z,56.10
2023-05-21T13:49:40.448Z,55.80
2023-05-21T13:52:06.970Z,55.80
2023-05-21T13:54:37.726Z,55.90
2023-05-21T13:57:07.567Z,56.00
2023-05-21T13:59:34.128Z,56.10
2023-05-21T14:02:00.736Z,56.00
2023-05-21T14:04:27.368Z,56.20
2023-05-21T14:06:53.899Z,56.00
2023-05-21T14:09:20.444Z,56.10
2023-05-21T14:11:46.943Z,56.10
2023-05-21T14:14:13.457Z,56.40
2023-05-21T14:16:40.058Z,56.60
2023-05-21T14:19:06.732Z,56.70
2023-05-21T14:21:33.294Z,57.00
2023-05-21T14:23:59.845Z,56.80
2023-05-21T14:26:26.391Z,57.10
2023-05-21T14:28:55.597Z,57.80
2023-05-21T14:31:22.114Z,57.80
2023-05-21T14:39:30.478Z,57.90
2023-05-21T14:41:57.049Z,58.00
2023-05-21T14:44:23.598Z,58.30
2023-05-21T14:46:50.145Z,59.20
2023-05-21T14:49:16.659Z,59.10
2023-05-21T14:54:33.283Z,59.50
2023-05-21T14:57:00.083Z,59.30
2023-05-21T14:59:26.653Z,59.40
2023-05-21T15:01:53.235Z,59.60
2023-05-21T15:04:19.774Z,59.40
2023-05-21T15:06:46.279Z,59.80
2023-05-21T15:09:12.782Z,60.00
2023-05-21T15:11:39.306Z,60.20
2023-05-21T15:14:05.832Z,60.40
2023-05-21T15:16:32.408Z,60.30
2023-05-21T15:19:01.691Z,60.50
2023-05-21T15:21:28.413Z,60.30
2023-05-21T15:23:54.974Z,60.50
2023-05-21T15:26:21.483Z,60.70
2023-05-21T15:28:48.034Z,60.80
2023-05-21T15:31:14.548Z,60.90
2023-05-21T15:33:41.065Z,60.80
2023-05-21T15:36:07.591Z,60.80
2023-05-21T15:38:34.162Z,60.80
2023-05-21T15:41:00.693Z,60.80
2023-05-21T15:43:31.679Z,60.70
2023-05-21T15:45:58.193Z,60.60
2023-05-21T15:48:24.693Z,60.60
2023-05-21T15:50:51.220Z,60.50
2023-05-21T15:53:17.778Z,60.40
2023-05-21T15:55:44.301Z,60.30
2023-05-21T15:58:10.838Z,60.30
2023-05-21T16:00:37.379Z,60.20
2023-05-21T16:03:07.774Z,60.20
2023-05-21T16:05:34.701Z,60.20
2023-05-21T16:08:01.315Z,60.20
2023-05-21T16:10:27.858Z,60.30
2023-05-21T16:12:54.353Z,60.20
2023-05-21T16:15:20.869Z,60.20
2023-05-21T16:17:49.728Z,60.40
2023-05-21T16:20:16.287Z,60.40
2023-05-21T16:22:42.809Z,60.40
2023-05-21T16:25:09.344Z,60.70
2023-05-21T16:27:35.872Z,60.80
2023-05-21T16:30:02.415Z,60.80
2023-05-21T16:32:29.033Z,61.00
2023-05-21T16:34:55.762Z,60.90
2023-05-21T16:37:22.286Z,60.90
2023-05-21T16:39:48.923Z,61.00
2023-05-21T16:42:15.444Z,60.90
2023-05-21T16:44:41.952Z,61.00
2023-05-21T16:47:08.489Z,61.00
2023-05-21T16:49:35.038Z,61.00
2023-05-21T16:52:01.620Z,61.00
2023-05-21T16:54:28.137Z,61.00
2023-05-21T16:56:55.202Z,61.30
2023-05-21T16:59:21.728Z,60.90
2023-05-21T17:01:48.275Z,61.30
2023-05-21T17:04:14.792Z,61.00
2023-05-21T17:06:41.314Z,61.00
2023-05-21T17:09:13.873Z,61.00
2023-05-21T17:11:40.390Z,61.10
2023-05-21T17:14:06.932Z,60.90
2023-05-21T17:16:33.505Z,61.00
2023-05-21T17:19:00.057Z,61.00
2023-05-21T17:21:26.661Z,61.00
2023-05-21T17:23:53.196Z,61.10
2023-05-21T17:26:19.708Z,61.10
2023-05-21T17:28:46.244Z,60.90
2023-05-21T17:31:12.776Z,61.10
2023-05-21T17:33:39.304Z,60.90
2023-05-21T17:36:05.848Z,61.00
2023-05-21T17:38:32.384Z,60.90
2023-05-21T17:40:58.941Z,61.30
2023-05-21T17:43:25.539Z,61.10
2023-05-21T17:45:52.074Z,61.10
2023-05-21T17:48:18.647Z,61.10
2023-05-21T17:50:45.180Z,61.10
2023-05-21T17:53:13.731Z,61.10
2023-05-21T17:55:40.241Z,61.10
2023-05-21T17:58:06.900Z,61.30
2023-05-21T18:00:33.523Z,61.10
2023-05-21T18:03:00.228Z,61.20
2023-05-21T18:05:26.751Z,61.30
2023-05-21T18:07:53.294Z,61.30
2023-05-21T18:10:19.815Z,61.20
2023-05-21T18:12:46.444Z,61.30
2023-05-21T18:15:13.031Z,61.30
2023-05-21T18:17:39.588Z,61.30
2023-05-21T18:20:06.157Z,61.40
2023-05-21T18:22:37.807Z,61.40
2023-05-21T18:25:04.348Z,61.40
2023-05-21T18:27:30.872Z,61.40
2023-05-21T18:29:57.395Z,61.40
2023-05-21T18:32:24.020Z,61.40
2023-05-21T18:34:50.663Z,61.50
2023-05-21T18:37:17.188Z,61.60
2023-05-21T18:39:43.726Z,61.40
2023-05-21T18:42:14.343Z,61.60
2023-05-21T18:44:41.123Z,61.60
2023-05-21T18:47:08.141Z,61.50
2023-05-21T18:49:34.819Z,61.70
2023-05-21T18:52:01.332Z,61.50
2023-05-21T18:54:27.844Z,61.60
2023-05-21T18:56:54.347Z,61.60
2023-05-21T18:59:20.871Z,61.60
2023-05-21T19:01:47.446Z,61.70
2023-05-21T19:04:14.017Z,61.70
2023-05-21T19:06:40.550Z,61.80
2023-05-21T19:09:07.077Z,61.70
2023-05-21T19:11:33.597Z,61.80
2023-05-21T19:14:00.127Z,61.90
2023-05-21T19:16:26.722Z,61.80
2023-05-21T19:18:53.248Z,61.80
2023-05-21T19:21:19.807Z,61.90
2023-05-21T19:23:53.218Z,61.90
2023-05-21T19:26:20.346Z,62.00
2023-05-21T19:28:46.859Z,61.80
2023-05-21T19:31:13.364Z,61.90
2023-05-21T19:33:40.033Z,62.00
2023-05-21T19:36:06.753Z,62.00
2023-05-21T19:38:33.274Z,62.00
2023-05-21T19:40:59.778Z,62.00
2023-05-21T19:43:26.292Z,62.10
2023-05-21T19:45:52.885Z,62.10
2023-05-21T19:48:19.425Z,62.20
2023-05-21T19:50:45.932Z,62.10
2023-05-21T19:53:12.462Z,62.10
2023-05-21T19:55:38.980Z,62.20
2023-05-21T19:58:05.501Z,62.10
2023-05-21T20:00:32.004Z,62.20
2023-05-21T20:02:58.622Z,62.20
2023-05-21T20:05:25.144Z,62.00
2023-05-21T20:07:51.677Z,62.20
2023-05-21T20:10:18.206Z,62.30
2023-05-21T20:12:44.746Z,62.30
2023-05-21T20:15:11.253Z,62.40
2023-05-21T20:17:37.797Z,62.30
2023-05-21T20:20:04.367Z,62.30
2023-05-21T20:22:30.884Z,62.40
2023-05-21T20:24:57.416Z,62.30
2023-05-21T20:27:23.956Z,62.40
2023-05-21T20:29:50.475Z,62.40
2023-05-21T20:32:17.000Z,62.40
2023-05-21T20:34:58.314Z,62.50
2023-05-21T20:37:29.093Z,62.50
2023-05-21T20:39:56.421Z,62.60
2023-05-21T20:42:22.942Z,62.60
2023-05-21T20:44:49.455Z,62.60
2023-05-21T20:47:15.973Z,62.50
2023-05-21T20:49:42.494Z,62.60
2023-05-21T20:52:09.031Z,62.60
2023-05-21T20:54:35.567Z,62.60
2023-05-21T20:57:02.117Z,62.80
2023-05-21T20:59:28.653Z,62.70
2023-05-21T21:01:55.223Z,62.50
2023-05-21T21:04:21.799Z,62.60
2023-05-21T21:06:48.324Z,62.50
2023-05-21T21:09:14.837Z,62.60
2023-05-21T21:11:41.359Z,62.70
2023-05-21T21:14:07.901Z,62.50
2023-05-21T21:16:34.489Z,62.60
2023-05-21T21:19:01.177Z,62.50
2023-05-21T21:21:27.738Z,62.40
2023-05-21T21:23:54.286Z,62.70
2023-05-21T21:26:20.843Z,62.80
2023-05-21T21:28:47.353Z,62.80
2023-05-21T21:31:13.882Z,62.90
2023-05-21T21:33:40.406Z,63.10
2023-05-21T21:36:06.946Z,63.00
2023-05-21T21:38:33.443Z,62.80
2023-05-21T21:40:59.978Z,63.00
2023-05-21T21:43:26.532Z,62.80
2023-05-21T21:45:53.111Z,62.80
2023-05-21T21:48:19.679Z,62.90
2023-05-21T21:50:46.224Z,62.90
2023-05-21T21:53:14.031Z,62.80
2023-05-21T21:55:40.619Z,63.00
2023-05-21T21:58:07.138Z,62.80
2023-05-21T22:00:33.682Z,62.90
2023-05-21T22:03:00.289Z,63.00
2023-05-21T22:05:26.878Z,62.90
2023-05-21T22:07:53.401Z,63.00
2023-05-21T22:10:20.008Z,62.90
2023-05-21T22:12:46.531Z,62.80
2023-05-21T22:15:13.054Z,62.80
2023-05-21T22:17:39.618Z,62.90
2023-05-21T22:20:06.199Z,62.90
2023-05-21T22:22:32.703Z,62.80
2023-05-21T22:24:59.229Z,62.80
2023-05-21T22:27:25.725Z,62.80
2023-05-21T22:29:52.229Z,63.00
2023-05-21T22:32:18.761Z,62.80
2023-05-21T22:34:45.380Z,63.10
2023-05-21T22:37:11.931Z,62.90
2023-05-21T22:39:44.018Z,63.00
2023-05-21T22:42:10.649Z,63.10
2023-05-21T22:44:37.177Z,63.00
2023-05-21T22:47:08.021Z,63.10
2023-05-21T22:49:34.571Z,62.80
2023-05-21T22:52:01.097Z,62.90
2023-05-21T22:54:27.618Z,62.80
2023-05-21T22:56:54.150Z,63.00
2023-05-21T22:59:20.654Z,62.90
2023-05-21T23:01:47.255Z,63.00
2023-05-21T23:04:13.773Z,62.90
2023-05-21T23:06:41.374Z,62.90
2023-05-21T23:09:07.885Z,62.70
2023-05-21T23:11:38.042Z,62.90
2023-05-21T23:14:04.561Z,63.00
2023-05-21T23:16:31.182Z,62.90
2023-05-21T23:18:57.783Z,62.90
2023-05-21T23:21:26.069Z,63.00
2023-05-21T23:23:52.644Z,63.00
2023-05-21T23:26:19.151Z,63.00
2023-05-21T23:28:45.695Z,63.00
2023-05-21T23:31:12.264Z,63.00
2023-05-21T23:33:38.808Z,63.00
2023-05-21T23:36:05.342Z,63.00
2023-05-21T23:38:31.909Z,63.00
2023-05-21T23:40:58.434Z,62.80
2023-05-21T23:43:26.072Z,62.90
2023-05-21T23:45:52.645Z,63.20
2023-05-21T23:48:19.215Z,62.90
2023-05-21T23:50:45.771Z,63.00
2023-05-21T23:53:12.301Z,63.00
2023-05-21T23:55:38.825Z,63.00
2023-05-21T23:58:05.362Z,63.10
